createdAt,value
2023-09-27T00:00:33.080Z,18.60
2023-09-27T00:03:22.653Z,18.48
2023-09-27T00:05:51.609Z,18.44
2023-09-27T00:08:21.178Z,18.36
2023-09-27T00:10:50.224Z,18.28
2023-09-27T00:13:19.022Z,18.29
2023-09-27T00:15:49.412Z,18.34
2023-09-27T00:18:18.123Z,18.39
2023-09-27T00:20:46.872Z,18.40
2023-09-27T00:23:16.010Z,18.46
2023-09-27T00:25:44.664Z,18.51
2023-09-27T00:28:13.297Z,18.55
2023-09-27T00:30:42.534Z,18.57
2023-09-27T00:33:11.163Z,18.55
2023-09-27T00:35:41.165Z,18.55
2023-09-27T00:38:12.043Z,18.51
2023-09-27T00:40:48.905Z,18.45
2023-09-27T00:43:32.761Z,18.41
2023-09-27T00:46:03.604Z,18.37
2023-09-27T00:48:34.239Z,18.35
2023-09-27T00:51:05.136Z,18.31
2023-09-27T00:53:35.617Z,18.20
2023-09-27T00:56:05.660Z,18.07
2023-09-27T00:58:38.283Z,17.93
2023-09-27T01:01:07.652Z,17.82
2023-09-27T01:03:36.570Z,17.75
2023-09-27T01:06:05.632Z,17.69
2023-09-27T01:08:34.583Z,17.62
2023-09-27T01:11:05.632Z,17.57
2023-09-27T01:13:34.675Z,17.56
2023-09-27T01:16:04.128Z,17.60
2023-09-27T01:18:32.755Z,17.65
2023-09-27T01:21:02.975Z,17.69
2023-09-27T01:23:32.091Z,17.71
2023-09-27T01:26:02.408Z,17.72
2023-09-27T01:28:33.102Z,17.74
2023-09-27T01:31:01.639Z,17.74
2023-09-27T01:33:30.951Z,17.76
2023-09-27T01:36:01.280Z,17.75
2023-09-27T01:38:30.089Z,17.75
2023-09-27T01:40:59.054Z,17.78
2023-09-27T01:43:28.336Z,17.80
2023-09-27T01:45:56.901Z,17.81
2023-09-27T01:48:25.611Z,17.84
2023-09-27T01:50:57.258Z,17.87
2023-09-27T01:53:26.987Z,17.87
2023-09-27T01:55:56.156Z,17.85
2023-09-27T01:58:25.843Z,17.85
2023-09-27T02:00:54.681Z,17.81
2023-09-27T02:03:23.518Z,17.76
2023-09-27T02:05:54.292Z,17.74
2023-09-27T02:08:22.940Z,17.74
2023-09-27T02:10:53.974Z,17.75
2023-09-27T02:13:22.572Z,17.77
2023-09-27T02:15:51.137Z,17.80
2023-09-27T02:18:20.215Z,17.82
2023-09-27T02:20:48.772Z,17.84
2023-09-27T02:23:17.340Z,17.87
2023-09-27T02:25:46.399Z,17.90
2023-09-27T02:28:15.148Z,17.93
2023-09-27T02:30:43.982Z,17.96
2023-09-27T02:33:13.193Z,17.97
2023-09-27T02:35:41.826Z,17.99
2023-09-27T02:38:10.908Z,18.00
2023-09-27T02:40:41.102Z,18.01
2023-09-27T02:43:09.931Z,18.02
2023-09-27T02:45:38.896Z,18.02
2023-09-27T02:48:07.851Z,18.00
2023-09-27T02:50:36.516Z,17.98
2023-09-27T02:53:05.894Z,17.97
2023-09-27T02:55:35.155Z,17.98
2023-09-27T02:58:04.173Z,17.99
2023-09-27T03:00:35.507Z,17.99
2023-09-27T03:03:05.109Z,17.98
2023-09-27T03:05:37.075Z,17.96
2023-09-27T03:08:06.766Z,17.90
2023-09-27T03:10:40.360Z,17.81
2023-09-27T03:13:10.963Z,17.70
2023-09-27T03:15:39.543Z,17.61
2023-09-27T03:18:08.746Z,17.51
2023-09-27T03:20:37.876Z,17.45
2023-09-27T03:23:06.543Z,17.40
2023-09-27T03:25:35.524Z,17.36
2023-09-27T03:28:04.682Z,17.33
2023-09-27T03:30:33.333Z,17.35
2023-09-27T03:33:04.019Z,17.36
2023-09-27T03:35:33.342Z,17.34
2023-09-27T03:38:01.973Z,17.34
2023-09-27T03:40:31.157Z,17.35
2023-09-27T03:43:00.131Z,17.32
2023-09-27T03:45:31.987Z,17.27
2023-09-27T03:48:04.350Z,17.23
2023-09-27T03:50:33.905Z,17.22
2023-09-27T03:53:02.680Z,17.24
2023-09-27T03:55:31.653Z,17.22
2023-09-27T03:58:00.327Z,17.18
2023-09-27T04:00:29.116Z,17.19
2023-09-27T04:02:58.754Z,17.15
2023-09-27T04:05:28.226Z,17.06
2023-09-27T04:07:57.448Z,16.98
2023-09-27T04:10:26.996Z,16.91
2023-09-27T04:12:56.061Z,16.87
2023-09-27T04:15:25.049Z,16.86
2023-09-27T04:17:53.882Z,16.88
2023-09-27T04:20:23.266Z,16.92
2023-09-27T04:22:51.913Z,16.92
2023-09-27T04:25:22.358Z,16.92
2023-09-27T04:27:51.923Z,16.94
2023-09-27T04:30:23.515Z,17.01
2023-09-27T04:32:53.202Z,17.07
2023-09-27T04:35:23.047Z,17.13
2023-09-27T04:37:52.145Z,17.18
2023-09-27T04:40:21.323Z,17.19
2023-09-27T04:42:50.471Z,17.19
2023-09-27T04:45:19.481Z,17.18
2023-09-27T04:47:48.185Z,17.17
2023-09-27T04:50:17.485Z,17.19
2023-09-27T04:52:46.719Z,17.20
2023-09-27T04:55:16.412Z,17.19
2023-09-27T04:57:45.349Z,17.20
2023-09-27T05:00:21.271Z,17.22
2023-09-27T05:02:54.015Z,17.27
2023-09-27T05:05:23.529Z,17.31
2023-09-27T05:08:06.509Z,17.32
2023-09-27T05:10:46.299Z,17.32
2023-09-27T05:13:16.640Z,17.37
2023-09-27T05:15:51.287Z,17.43
2023-09-27T05:18:24.182Z,17.44
2023-09-27T05:20:53.041Z,17.45
2023-09-27T05:23:24.999Z,17.51
2023-09-27T05:25:53.590Z,17.61
2023-09-27T05:28:22.247Z,17.72
2023-09-27T05:30:53.299Z,17.84
2023-09-27T05:33:22.186Z,17.98
2023-09-27T05:35:51.696Z,18.09
2023-09-27T05:38:21.993Z,18.15
2023-09-27T05:40:50.813Z,18.20
2023-09-27T05:43:19.445Z,18.27
2023-09-27T05:45:50.204Z,18.36
2023-09-27T05:48:18.929Z,18.49
2023-09-27T05:50:51.630Z,18.61
2023-09-27T05:53:21.078Z,18.77
2023-09-27T05:55:50.036Z,18.89
2023-09-27T05:58:20.355Z,19.01
2023-09-27T06:00:49.518Z,19.14
2023-09-27T06:03:18.688Z,19.37
2023-09-27T06:05:47.809Z,19.77
2023-09-27T06:08:16.755Z,20.26
2023-09-27T06:10:45.509Z,20.55
2023-09-27T06:13:14.355Z,20.74
2023-09-27T06:15:43.520Z,20.95
2023-09-27T06:18:13.804Z,21.16
2023-09-27T06:20:43.378Z,21.54
2023-09-27T06:23:12.417Z,22.59
2023-09-27T06:25:45.009Z,23.48
2023-09-27T06:28:17.338Z,23.90
2023-09-27T06:30:45.877Z,24.44
2023-09-27T06:33:15.670Z,24.96
2023-09-27T06:35:44.357Z,25.40
2023-09-27T06:38:15.158Z,25.75
2023-09-27T06:40:44.285Z,26.00
2023-09-27T06:43:12.854Z,26.19
2023-09-27T06:45:41.952Z,26.63
2023-09-27T06:48:11.323Z,27.02
2023-09-27T06:50:43.462Z,27.08
2023-09-27T06:53:23.519Z,26.97
2023-09-27T06:55:55.493Z,26.92
2023-09-27T06:58:24.957Z,26.75
2023-09-27T07:00:54.093Z,26.54
2023-09-27T07:03:27.003Z,26.33
2023-09-27T07:05:56.261Z,26.24
2023-09-27T07:08:24.947Z,26.16
2023-09-27T07:10:53.520Z,26.03
2023-09-27T07:13:22.692Z,25.93
2023-09-27T07:15:52.292Z,25.81
2023-09-27T07:18:21.348Z,25.81
2023-09-27T07:20:51.840Z,25.89
2023-09-27T07:23:21.955Z,26.10
2023-09-27T07:25:51.079Z,26.41
2023-09-27T07:28:19.682Z,26.82
2023-09-27T07:30:48.626Z,27.32
2023-09-27T07:33:19.009Z,27.89
2023-09-27T07:35:52.607Z,28.47
2023-09-27T07:38:22.249Z,28.94
2023-09-27T07:40:50.857Z,29.60
2023-09-27T07:43:20.094Z,30.30
2023-09-27T07:45:49.339Z,31.00
2023-09-27T07:48:23.022Z,31.62
2023-09-27T07:50:55.129Z,32.04
2023-09-27T07:53:24.447Z,32.18
2023-09-27T07:55:55.242Z,32.17
2023-09-27T07:58:33.340Z,32.11
2023-09-27T08:01:12.096Z,32.11
2023-09-27T08:03:46.966Z,32.10
2023-09-27T08:06:24.982Z,31.94
2023-09-27T08:09:00.642Z,31.76
2023-09-27T08:11:34.257Z,31.53
2023-09-27T08:14:06.358Z,31.32
2023-09-27T08:16:37.739Z,30.88
2023-09-27T08:19:11.631Z,30.42
2023-09-27T08:21:42.331Z,29.99
2023-09-27T08:24:11.962Z,29.48
2023-09-27T08:26:41.542Z,29.10
2023-09-27T08:29:11.722Z,28.76
2023-09-27T08:31:42.158Z,28.39
2023-09-27T08:34:15.420Z,28.12
2023-09-27T08:36:45.533Z,27.92
2023-09-27T08:39:16.314Z,27.70
2023-09-27T08:41:45.772Z,27.51
2023-09-27T08:44:16.179Z,27.38
2023-09-27T08:46:47.556Z,27.31
2023-09-27T08:49:20.965Z,27.34
2023-09-27T08:51:53.069Z,27.43
2023-09-27T08:54:34.154Z,27.51
2023-09-27T08:57:19.300Z,27.61
2023-09-27T08:59:53.534Z,27.69
2023-09-27T09:02:32.880Z,27.82
2023-09-27T09:05:07.648Z,27.89
2023-09-27T09:07:40.261Z,27.98
2023-09-27T09:10:17.701Z,28.11
2023-09-27T09:12:48.690Z,28.32
2023-09-27T09:15:42.997Z,28.53
2023-09-27T09:18:16.581Z,28.73
2023-09-27T09:21:01.523Z,28.82
2023-09-27T09:23:35.870Z,28.86
2023-09-27T09:26:09.443Z,28.84
2023-09-27T09:28:57.946Z,28.76
2023-09-27T09:31:32.524Z,28.64
2023-09-27T09:34:04.625Z,28.50
2023-09-27T09:36:33.816Z,28.51
2023-09-27T09:39:18.859Z,28.48
2023-09-27T09:41:49.433Z,28.39
2023-09-27T09:44:21.290Z,28.35
2023-09-27T09:46:51.153Z,28.34
2023-09-27T09:49:20.344Z,28.31
2023-09-27T09:51:51.070Z,28.18
2023-09-27T09:55:11.096Z,27.97
2023-09-27T09:57:52.723Z,27.87
2023-09-27T10:00:28.772Z,27.81
2023-09-27T10:03:06.273Z,27.67
2023-09-27T10:05:39.851Z,27.51
2023-09-27T10:08:09.401Z,27.31
2023-09-27T10:10:38.893Z,27.20
2023-09-27T10:13:10.912Z,27.06
2023-09-27T10:15:42.307Z,26.88
2023-09-27T10:18:38.629Z,26.71
2023-09-27T10:21:10.968Z,26.46
2023-09-27T10:23:48.732Z,26.33
2023-09-27T10:26:27.992Z,26.28
2023-09-27T10:29:06.115Z,26.25
2023-09-27T10:31:40.348Z,26.24
2023-09-27T10:34:27.268Z,26.21
2023-09-27T10:37:17.268Z,26.18
2023-09-27T10:40:20.973Z,26.13
2023-09-27T10:42:50.430Z,26.10
2023-09-27T10:45:19.141Z,26.10
2023-09-27T10:47:51.342Z,26.05
2023-09-27T10:50:30.916Z,25.95
2023-09-27T10:53:00.711Z,25.91
2023-09-27T10:55:39.882Z,25.89
2023-09-27T10:58:09.031Z,25.82
2023-09-27T11:00:53.057Z,25.78
2023-09-27T11:03:22.828Z,25.76
2023-09-27T11:05:52.887Z,25.77
2023-09-27T11:08:24.260Z,25.80
2023-09-27T11:10:54.566Z,25.84
2023-09-27T11:13:23.472Z,25.86
2023-09-27T11:15:52.495Z,25.88
2023-09-27T11:18:21.432Z,25.90
2023-09-27T11:20:51.273Z,25.91
2023-09-27T11:23:22.426Z,25.91
2023-09-27T11:25:51.620Z,25.91
2023-09-27T11:28:20.218Z,25.91
2023-09-27T11:30:58.271Z,25.91
2023-09-27T11:33:34.130Z,25.93
2023-09-27T11:36:07.048Z,25.94
2023-09-27T11:38:36.401Z,25.94
2023-09-27T11:41:15.814Z,25.93
2023-09-27T11:43:45.549Z,25.93
2023-09-27T11:46:29.485Z,25.94
2023-09-27T11:49:09.559Z,25.92
2023-09-27T11:51:39.028Z,25.90
2023-09-27T11:54:08.086Z,25.90
2023-09-27T11:56:37.897Z,25.91
2023-09-27T11:59:07.165Z,25.93
2023-09-27T12:01:36.039Z,25.95
2023-09-27T12:04:06.638Z,25.99
2023-09-27T12:06:38.052Z,26.01
2023-09-27T12:09:06.855Z,26.02
2023-09-27T12:11:36.684Z,26.04
2023-09-27T12:14:05.883Z,26.06
2023-09-27T12:16:34.480Z,26.09
2023-09-27T12:19:06.131Z,26.11
2023-09-27T12:21:39.462Z,26.11
2023-09-27T12:24:09.377Z,26.13
2023-09-27T12:26:38.340Z,26.14
2023-09-27T12:29:07.958Z,26.14
2023-09-27T12:31:36.589Z,26.14
2023-09-27T12:34:05.448Z,26.14
2023-09-27T12:36:34.188Z,26.15
2023-09-27T12:39:04.083Z,26.18
2023-09-27T12:41:33.115Z,26.17
2023-09-27T12:44:02.308Z,26.16
2023-09-27T12:46:31.159Z,26.16
2023-09-27T12:49:00.741Z,26.15
2023-09-27T12:51:38.991Z,26.14
2023-09-27T12:54:16.481Z,26.11
2023-09-27T12:56:45.137Z,26.10
2023-09-27T12:59:13.733Z,26.10
2023-09-27T13:01:43.048Z,26.08
2023-09-27T13:04:12.294Z,26.07
2023-09-27T13:06:41.008Z,26.08
2023-09-27T13:09:11.751Z,26.06
2023-09-27T13:11:40.328Z,26.05
2023-09-27T13:14:10.057Z,26.03
2023-09-27T13:16:39.506Z,25.99
2023-09-27T13:19:09.560Z,25.95
2023-09-27T13:21:38.369Z,25.93
2023-09-27T13:24:09.958Z,25.93
2023-09-27T13:26:38.662Z,25.94
2023-09-27T13:29:08.413Z,25.95
2023-09-27T13:31:38.247Z,25.93
2023-09-27T13:34:11.766Z,25.93
2023-09-27T13:36:41.791Z,25.91
2023-09-27T13:39:18.827Z,25.92
2023-09-27T13:41:48.390Z,25.91
2023-09-27T13:44:17.139Z,25.87
2023-09-27T13:46:45.827Z,25.83
2023-09-27T13:49:22.117Z,25.82
2023-09-27T13:51:50.723Z,25.79
2023-09-27T13:54:22.926Z,25.78
2023-09-27T13:56:51.743Z,25.79
2023-09-27T13:59:23.994Z,25.81
2023-09-27T14:01:56.794Z,25.80
2023-09-27T14:04:26.075Z,25.77
2023-09-27T14:06:55.603Z,25.75
2023-09-27T14:09:24.444Z,25.73
2023-09-27T14:11:53.973Z,25.71
2023-09-27T14:14:23.149Z,25.69
2023-09-27T14:16:51.823Z,25.69
2023-09-27T14:19:22.013Z,25.69
2023-09-27T14:21:50.829Z,25.67
2023-09-27T14:24:20.614Z,25.65
2023-09-27T14:26:51.620Z,25.64
2023-09-27T14:29:29.735Z,25.62
2023-09-27T14:32:09.084Z,25.62
2023-09-27T14:37:09.894Z,25.58
2023-09-27T14:39:38.837Z,25.54
2023-09-27T14:42:11.249Z,25.50
2023-09-27T14:44:40.222Z,25.46
2023-09-27T14:47:09.181Z,25.43
2023-09-27T14:49:41.113Z,25.40
2023-09-27T14:52:09.799Z,25.38
2023-09-27T14:54:38.426Z,25.35
2023-09-27T14:57:08.401Z,25.33
2023-09-27T14:59:37.148Z,25.32
2023-09-27T15:02:05.741Z,25.31
2023-09-27T15:04:34.774Z,25.29
2023-09-27T15:07:04.201Z,25.28
2023-09-27T15:09:32.716Z,25.24
2023-09-27T15:12:03.034Z,25.19
2023-09-27T15:14:31.642Z,25.14
2023-09-27T15:17:02.659Z,25.09
2023-09-27T15:19:31.881Z,25.06
2023-09-27T15:22:00.748Z,25.02
2023-09-27T15:24:29.956Z,24.98
2023-09-27T15:26:59.218Z,24.93
2023-09-27T15:29:28.291Z,24.88
2023-09-27T15:31:56.917Z,24.84
2023-09-27T15:34:25.956Z,24.79
2023-09-27T15:36:56.094Z,24.74
2023-09-27T15:39:25.695Z,24.70
2023-09-27T15:41:55.069Z,24.70
2023-09-27T15:44:23.722Z,24.68
2023-09-27T15:46:53.033Z,24.65
2023-09-27T15:49:21.951Z,24.61
2023-09-27T15:51:50.566Z,24.57
2023-09-27T15:54:19.717Z,24.50
2023-09-27T15:56:48.627Z,24.44
2023-09-27T15:59:18.096Z,24.38
2023-09-27T16:01:47.365Z,24.31
2023-09-27T16:04:16.450Z,24.24
2023-09-27T16:06:45.090Z,24.17
2023-09-27T16:09:16.873Z,24.10
2023-09-27T16:11:46.229Z,24.02
2023-09-27T16:14:15.535Z,23.95
2023-09-27T16:16:44.476Z,23.87
2023-09-27T16:19:13.502Z,23.80
2023-09-27T16:21:43.138Z,23.73
2023-09-27T16:24:13.167Z,23.65
2023-09-27T16:26:42.798Z,23.57
2023-09-27T16:29:11.811Z,23.48
2023-09-27T16:31:44.028Z,23.37
2023-09-27T16:34:13.465Z,23.27
2023-09-27T16:36:43.999Z,23.18
2023-09-27T16:39:15.419Z,23.10
2023-09-27T16:41:44.138Z,23.03
2023-09-27T16:44:13.105Z,22.96
2023-09-27T16:46:41.837Z,22.92
2023-09-27T16:49:11.182Z,22.87
2023-09-27T16:51:39.983Z,22.82
2023-09-27T16:54:10.933Z,22.75
2023-09-27T16:56:39.711Z,22.71
2023-09-27T16:59:08.440Z,22.66
2023-09-27T17:01:39.485Z,22.62
2023-09-27T17:04:21.972Z,22.57
2023-09-27T17:07:20.431Z,22.52
2023-09-27T17:10:13.599Z,22.46
2023-09-27T17:13:04.595Z,22.40
2023-09-27T17:15:56.107Z,22.35
2023-09-27T17:18:59.866Z,22.30
2023-09-27T17:21:38.494Z,22.25
2023-09-27T17:24:21.826Z,22.21
2023-09-27T17:27:22.612Z,22.15
2023-09-27T17:30:14.209Z,22.07
2023-09-27T17:32:56.192Z,22.01
2023-09-27T17:35:37.427Z,21.95
2023-09-27T17:38:33.882Z,21.89
2023-09-27T17:41:28.908Z,21.82
2023-09-27T17:44:14.706Z,21.76
2023-09-27T17:46:46.820Z,21.73
2023-09-27T17:49:16.981Z,21.70
2023-09-27T17:51:46.563Z,21.65
2023-09-27T17:54:15.127Z,21.60
2023-09-27T17:56:44.178Z,21.55
2023-09-27T17:59:14.951Z,21.50
2023-09-27T18:01:44.238Z,21.45
2023-09-27T18:04:13.252Z,21.37
2023-09-27T18:06:42.002Z,21.32
2023-09-27T18:09:10.600Z,21.28
2023-09-27T18:11:39.467Z,21.24
2023-09-27T18:14:08.219Z,21.20
2023-09-27T18:16:36.970Z,21.13
2023-09-27T18:19:05.731Z,21.05
2023-09-27T18:21:34.847Z,20.98
2023-09-27T18:24:04.640Z,20.93
2023-09-27T18:26:33.529Z,20.90
2023-09-27T18:29:05.810Z,20.82
2023-09-27T18:31:34.823Z,20.72
2023-09-27T18:34:03.889Z,20.63
2023-09-27T18:36:34.607Z,20.54
2023-09-27T18:39:03.357Z,20.48
2023-09-27T18:41:31.867Z,20.43
2023-09-27T18:44:00.849Z,20.41
2023-09-27T18:46:29.994Z,20.39
2023-09-27T18:48:58.739Z,20.38
2023-09-27T18:51:27.810Z,20.32
2023-09-27T18:53:56.559Z,20.26
2023-09-27T18:56:25.171Z,20.22
2023-09-27T18:58:59.936Z,20.17
2023-09-27T19:01:30.215Z,20.11
2023-09-27T19:04:03.026Z,20.05
2023-09-27T19:06:33.696Z,20.00
2023-09-27T19:09:05.643Z,19.97
2023-09-27T19:11:37.216Z,19.95
2023-09-27T19:14:07.187Z,19.89
2023-09-27T19:16:36.711Z,19.81
2023-09-27T19:19:08.446Z,19.73
2023-09-27T19:21:37.680Z,19.66
2023-09-27T19:24:06.887Z,19.66
2023-09-27T19:26:41.212Z,19.65
2023-09-27T19:29:10.341Z,19.62
2023-09-27T19:31:39.439Z,19.60
2023-09-27T19:34:08.717Z,19.60
2023-09-27T19:36:42.408Z,19.62
2023-09-27T19:39:15.988Z,19.61
2023-09-27T19:41:45.472Z,19.61
2023-09-27T19:44:14.392Z,19.61
2023-09-27T19:46:44.242Z,19.53
2023-09-27T19:49:13.956Z,19.46
2023-09-27T19:51:43.394Z,19.44
2023-09-27T19:54:12.003Z,19.42
2023-09-27T19:56:43.599Z,19.41
2023-09-27T19:59:12.420Z,19.42
2023-09-27T20:01:41.326Z,19.45
2023-09-27T20:04:13.007Z,19.46
2023-09-27T20:06:43.327Z,19.47
2023-09-27T20:09:12.478Z,19.47
2023-09-27T20:11:43.467Z,19.46
2023-09-27T20:14:11.999Z,19.48
2023-09-27T20:16:41.130Z,19.48
2023-09-27T20:19:10.647Z,19.46
2023-09-27T20:21:39.384Z,19.41
2023-09-27T20:24:08.543Z,19.31
2023-09-27T20:26:37.274Z,19.28
2023-09-27T20:29:06.035Z,19.26
2023-09-27T20:31:35.517Z,19.21
2023-09-27T20:34:06.066Z,19.15
2023-09-27T20:36:34.655Z,19.13
2023-09-27T20:39:04.130Z,19.08
2023-09-27T20:41:32.724Z,19.02
2023-09-27T20:44:01.310Z,18.97
2023-09-27T20:46:33.775Z,18.92
2023-09-27T20:49:03.317Z,18.87
2023-09-27T20:51:32.514Z,18.86
2023-09-27T20:54:01.583Z,18.85
2023-09-27T20:56:30.608Z,18.80
2023-09-27T20:58:59.922Z,18.76
2023-09-27T21:01:37.088Z,18.69
2023-09-27T21:04:06.525Z,18.64
2023-09-27T21:06:35.591Z,18.66
2023-09-27T21:09:05.843Z,18.70
2023-09-27T21:11:34.722Z,18.76
2023-09-27T21:14:04.149Z,18.78
2023-09-27T21:16:33.957Z,18.80
2023-09-27T21:19:03.489Z,18.82
2023-09-27T21:21:33.386Z,18.84
2023-09-27T21:24:02.028Z,18.85
2023-09-27T21:26:31.196Z,18.85
2023-09-27T21:29:00.247Z,18.81
2023-09-27T21:31:29.043Z,18.73
2023-09-27T21:34:00.490Z,18.65
2023-09-27T21:36:29.167Z,18.55
2023-09-27T21:38:57.901Z,18.43
2023-09-27T21:41:27.107Z,18.33
2023-09-27T21:43:55.908Z,18.25
2023-09-27T21:46:24.611Z,18.16
2023-09-27T21:48:54.826Z,18.09
2023-09-27T21:51:24.175Z,18.05
2023-09-27T21:53:52.912Z,18.01
2023-09-27T21:56:21.994Z,17.95
2023-09-27T21:58:51.778Z,17.87
2023-09-27T22:01:23.469Z,17.84
2023-09-27T22:03:52.897Z,17.76
2023-09-27T22:06:21.716Z,17.67
2023-09-27T22:08:50.679Z,17.62
2023-09-27T22:11:20.105Z,17.57
2023-09-27T22:13:51.726Z,17.55
2023-09-27T22:16:23.302Z,17.54
2023-09-27T22:18:52.588Z,17.47
2023-09-27T22:21:38.880Z,17.44
2023-09-27T22:24:22.531Z,17.43
2023-09-27T22:26:52.814Z,17.42
2023-09-27T22:29:22.053Z,17.43
2023-09-27T22:31:50.697Z,17.45
2023-09-27T22:34:38.845Z,17.54
2023-09-27T22:37:10.782Z,17.64
2023-09-27T22:39:41.822Z,17.73
2023-09-27T22:42:21.915Z,17.78
2023-09-27T22:44:51.170Z,17.75
2023-09-27T22:47:20.235Z,17.73
2023-09-27T22:49:49.596Z,17.73
2023-09-27T22:52:18.445Z,17.74
2023-09-27T22:54:57.263Z,17.71
2023-09-27T22:57:26.754Z,17.65
2023-09-27T22:59:55.884Z,17.63
2023-09-27T23:02:24.415Z,17.62
2023-09-27T23:04:53.396Z,17.63
2023-09-27T23:07:24.109Z,17.64
2023-09-27T23:10:04.673Z,17.64
2023-09-27T23:12:37.419Z,17.66
2023-09-27T23:15:13.764Z,17.65
2023-09-27T23:18:01.881Z,17.65
2023-09-27T23:20:32.373Z,17.64
2023-09-27T23:23:08.817Z,17.63
2023-09-27T23:25:47.316Z,17.64
2023-09-27T23:28:39.713Z,17.64
2023-09-27T23:31:12.023Z,17.66
2023-09-27T23:33:45.331Z,17.66
2023-09-27T23:36:25.159Z,17.63
2023-09-27T23:38:59.111Z,17.64
2023-09-27T23:41:31.433Z,17.66
2023-09-27T23:44:10.091Z,17.65
2023-09-27T23:46:40.119Z,17.64
2023-09-27T23:49:17.952Z,17.62
2023-09-27T23:51:47.440Z,17.62
2023-09-27T23:54:19.832Z,17.60
2023-09-27T23:56:49.452Z,17.57
2023-09-27T23:59:31.512Z,17.54
